»·PEaware :: N441A KSMX-11CL

N441A :: KSMX-11CL

FLIGHT INFORMATION

Flight Status: Arrived
Operator: Privately registered:
United States
More flights under this callsign
Pilot: Marko S. (15)
Aircraft: LET KUNOVICE L-410 TURBOLET
(L410)
More flights by this aircraft type
Origin: KSMX Santa Maria Pub/Capt Hancock
United States
Destination: 11CL Hansen
United States
More flights between these airports :: More routes between these airports
Route: BUELT2 RZS V12 PMD
File this flight plan on PilotEdge
Remarks: / V /
Altitude:
(Current/Filed)
11,000ft
Speed:
(Current/Filed)
210kts
Departed: 12-Jan-13 08:53 AM
Arrived: 12-Jan-13 09:41 AM
Distance/Time
Traveled:
140nm/0:48
Distance/Time
To Go:
Arrived

Flight Plot

Page will automatically refresh every two minutes.


Map Options




Map Legend


Flown Route
Filed Route
Departure Airport
Arrival Airport
Navaid (VOR, NDB)
Fix

Horizontal Profiles

Position Reports

Time Latitude Longitude Heading Altitude Ground
Speed
12-Jan-13 08:46 34.898416 -120.449107 149 266ft 0kts
12-Jan-13 08:47 34.898416 -120.449107 149 266ft 0kts
12-Jan-13 08:48 34.898416 -120.449107 149 266ft 0kts
12-Jan-13 08:49 34.898416 -120.449106 149 266ft 0kts
12-Jan-13 08:50 34.898413 -120.449105 149 266ft 0kts
12-Jan-13 08:51 34.896749 -120.448254 149 266ft 15kts
12-Jan-13 08:52 34.893404 -120.445810 182 266ft 12kts
12-Jan-13 08:53 34.904708 -120.460243 313 769ft 134kts
12-Jan-13 08:54 34.937859 -120.480846 9 2555ft 159kts
12-Jan-13 08:55 34.941685 -120.440590 153 4048ft 167kts
12-Jan-13 08:56 34.899359 -120.452955 204 5656ft 160kts
12-Jan-13 08:57 34.861246 -120.446549 133 7238ft 157kts
12-Jan-13 08:58 34.826586 -120.417834 149 8713ft 159kts
12-Jan-13 08:59 34.790302 -120.386550 140 10204ft 164kts
12-Jan-13 09:00 34.751977 -120.354439 141 11014ft 191kts
12-Jan-13 09:01 34.706574 -120.317825 143 11013ft 203kts
12-Jan-13 09:02 34.658642 -120.281676 144 11009ft 204kts
12-Jan-13 09:03 34.633059 -120.227409 112 10960ft 190kts
12-Jan-13 09:04 34.616064 -120.161200 108 10870ft 216kts
12-Jan-13 09:05 34.597464 -120.091000 108 10865ft 221kts
12-Jan-13 09:06 34.579782 -120.023325 107 10965ft 221kts
12-Jan-13 09:07 34.560340 -119.952537 105 10962ft 225kts
12-Jan-13 09:08 34.540523 -119.880531 106 10963ft 225kts
12-Jan-13 09:09 34.520612 -119.810511 106 10967ft 226kts
12-Jan-13 09:10 34.507302 -119.737452 81 10988ft 218kts
12-Jan-13 09:11 34.512662 -119.664361 79 10956ft 217kts
12-Jan-13 09:12 34.518253 -119.593420 79 10957ft 217kts
12-Jan-13 09:13 34.523952 -119.522087 80 10950ft 219kts
12-Jan-13 09:14 34.530140 -119.447970 81 10952ft 225kts
12-Jan-13 09:15 34.535586 -119.384700 81 10951ft 226kts
12-Jan-13 09:16 34.542774 -119.299176 82 10950ft 227kts
12-Jan-13 09:17 34.548028 -119.236102 84 10999ft 227kts
12-Jan-13 09:18 34.555077 -119.146619 84 10999ft 229kts
12-Jan-13 09:19 34.560023 -119.082803 87 11010ft 227kts
12-Jan-13 09:20 34.566450 -118.998561 90 11004ft 214kts
12-Jan-13 09:21 34.571760 -118.929364 90 11005ft 208kts
12-Jan-13 09:22 34.576179 -118.872277 90 11010ft 203kts
12-Jan-13 09:23 34.581271 -118.804264 90 11023ft 205kts
12-Jan-13 09:24 34.586658 -118.735005 90 11026ft 205kts
12-Jan-13 09:25 34.592462 -118.656376 89 11034ft 195kts
12-Jan-13 09:26 34.596134 -118.602073 90 11030ft 196kts
12-Jan-13 09:27 34.600638 -118.532578 84 10996ft 223kts
12-Jan-13 09:28 34.605541 -118.457425 86 10999ft 227kts
12-Jan-13 09:29 34.610287 -118.383005 83 10995ft 227kts
12-Jan-13 09:30 34.614919 -118.310618 79 10961ft 216kts
12-Jan-13 09:31 34.619994 -118.237551 79 10279ft 227kts
12-Jan-13 09:32 34.625056 -118.160971 80 9283ft 228kts
12-Jan-13 09:33 34.629922 -118.086293 80 8319ft 224kts
12-Jan-13 09:34 34.631889 -118.016230 85 7343ft 211kts
12-Jan-13 09:35 34.631440 -117.944971 87 6338ft 209kts
12-Jan-13 09:36 34.631203 -117.874910 87 5343ft 205kts
12-Jan-13 09:37 34.630958 -117.811115 88 4327ft 176kts
12-Jan-13 09:38 34.630552 -117.756313 90 3520ft 151kts
12-Jan-13 09:39 34.628051 -117.708086 94 3441ft 154kts
12-Jan-13 09:40 34.629338 -117.660724 83 2908ft 99kts
12-Jan-13 09:41 34.630329 -117.648660 80 2890ft 1kts
12-Jan-13 09:42 34.630672 -117.645293 305 2890ft 0kts
12-Jan-13 09:43 34.630672 -117.645293 305 2890ft 0kts
12-Jan-13 09:44 34.630672 -117.645293 305 2890ft 0kts

Navigation Log

Ident Type
Flight plan parsing failed, navigation log unavailable